Time;durP1;ratioP1;P1;durP2;ratioP2;P2;SDS_P1;SDS_P2;PMS_P1;PMS_P2;Temp;Humidity;BMP_temperature;BMP_pressure;BME280_temperature;BME280_humidity;BME280_pressure;Samples;Min_cycle;Max_cycle;Signal;HPM_P1;HPM_P2
2024/03/25 00:04:59;;;;;;;18.53;10.20;;;;;;;;;;10447268;28;20943;-80
2024/03/25 00:10:01;;;;;;;15.73;8.67;;;;;;;;;;10447855;28;20520;-80
2024/03/25 00:15:05;;;;;;;18.37;9.97;;;;;;;;;;10443252;28;20439;-80
2024/03/25 00:20:09;;;;;;;20.30;9.97;;;;;;;;;;10448060;28;20399;-80
2024/03/25 00:25:11;;;;;;;19.25;9.63;;;;;;;;;;10447769;28;20440;-79
2024/03/25 00:30:15;;;;;;;18.40;9.63;;;;;;;;;;10444958;28;20451;-80
2024/03/25 00:35:18;;;;;;;21.03;10.90;;;;;;;;;;10447864;28;20473;-80
2024/03/25 00:40:21;;;;;;;13.77;8.43;;;;;;;;;;10442971;28;20419;-80
2024/03/25 00:45:25;;;;;;;15.30;8.77;;;;;;;;;;10446649;28;20512;-80
2024/03/25 00:50:28;;;;;;;14.75;8.50;;;;;;;;;;10445798;28;20448;-80
2024/03/25 00:55:30;;;;;;;16.95;8.50;;;;;;;;;;10447111;28;20466;-80
2024/03/25 01:00:35;;;;;;;16.08;8.55;;;;;;;;;;10446803;28;20430;-80
2024/03/25 01:05:37;;;;;;;15.80;9.43;;;;;;;;;;10453362;28;20710;-80
2024/03/25 01:10:39;;;;;;;15.13;8.48;;;;;;;;;;10452739;28;21010;-80
2024/03/25 01:15:43;;;;;;;16.13;8.73;;;;;;;;;;10454317;28;20415;-80
2024/03/25 01:20:45;;;;;;;15.50;8.65;;;;;;;;;;10454258;28;20804;-80
2024/03/25 01:25:47;;;;;;;16.38;8.48;;;;;;;;;;10453707;28;20412;-81
2024/03/25 01:30:51;;;;;;;12.52;8.38;;;;;;;;;;10454327;28;20443;-79
2024/03/25 01:35:55;;;;;;;14.25;8.52;;;;;;;;;;10454196;28;20482;-80
2024/03/25 01:41:09;;;;;;;16.15;8.43;;;;;;;;;;10453993;28;20465;-81
2024/03/25 01:46:12;;;;;;;13.30;8.30;;;;;;;;;;10453465;28;20420;-81
2024/03/25 01:51:16;;;;;;;15.25;8.20;;;;;;;;;;10452777;28;20455;-81
2024/03/25 01:56:19;;;;;;;12.80;7.68;;;;;;;;;;10453253;28;20411;-80
2024/03/25 02:01:23;;;;;;;11.75;7.72;;;;;;;;;;10452231;28;20751;-80
2024/03/25 02:06:28;;;;;;;14.50;8.40;;;;;;;;;;10451949;28;20420;-81
2024/03/25 02:11:31;;;;;;;13.63;8.17;;;;;;;;;;10450628;28;20450;-80
2024/03/25 02:16:34;;;;;;;12.70;7.53;;;;;;;;;;10450474;28;20798;-79
2024/03/25 02:21:37;;;;;;;13.10;8.07;;;;;;;;;;10449547;28;20416;-81
2024/03/25 02:26:40;;;;;;;11.45;7.95;;;;;;;;;;10451677;28;20443;-80
2024/03/25 02:31:42;;;;;;;13.50;8.25;;;;;;;;;;10451367;28;21070;-80
2024/03/25 02:36:45;;;;;;;13.18;8.50;;;;;;;;;;10450559;28;20447;-80
2024/03/25 02:41:48;;;;;;;14.15;8.63;;;;;;;;;;10452000;28;20466;-80
2024/03/25 02:46:51;;;;;;;12.52;8.82;;;;;;;;;;10451338;28;20446;-80
2024/03/25 02:51:53;;;;;;;14.48;9.10;;;;;;;;;;10450089;28;20513;-80
2024/03/25 02:56:57;;;;;;;13.05;8.80;;;;;;;;;;10446720;28;20455;-81
2024/03/25 03:01:59;;;;;;;12.63;8.88;;;;;;;;;;10448281;28;20904;-80
2024/03/25 03:07:01;;;;;;;13.55;8.90;;;;;;;;;;10446946;28;20482;-80
2024/03/25 03:12:05;;;;;;;13.02;9.18;;;;;;;;;;10450003;28;20482;-80
2024/03/25 03:17:08;;;;;;;13.40;9.05;;;;;;;;;;10449584;28;20412;-80
2024/03/25 03:22:10;;;;;;;12.55;8.52;;;;;;;;;;10448028;28;20442;-79
2024/03/25 03:27:13;;;;;;;15.50;9.40;;;;;;;;;;10444246;28;20432;-81
2024/03/25 03:32:16;;;;;;;13.88;9.13;;;;;;;;;;10444758;28;20451;-80
2024/03/25 03:37:18;;;;;;;12.45;8.10;;;;;;;;;;10446489;28;20432;-80
2024/03/25 03:42:21;;;;;;;11.43;8.10;;;;;;;;;;10445304;28;20762;-80
2024/03/25 03:47:24;;;;;;;11.65;7.75;;;;;;;;;;10444392;28;20435;-80
2024/03/25 03:52:26;;;;;;;10.70;8.03;;;;;;;;;;10443513;28;20941;-80
2024/03/25 03:57:29;;;;;;;11.83;6.97;;;;;;;;;;10445641;28;20451;-80
2024/03/25 04:02:32;;;;;;;11.13;6.90;;;;;;;;;;10443914;28;20404;-80
2024/03/25 04:07:34;;;;;;;10.52;6.90;;;;;;;;;;10448538;28;20461;-80
2024/03/25 04:12:38;;;;;;;10.73;6.95;;;;;;;;;;10448535;28;20451;-80
2024/03/25 04:17:40;;;;;;;12.63;7.53;;;;;;;;;;10448180;28;21074;-80
2024/03/25 04:22:42;;;;;;;12.55;7.63;;;;;;;;;;10448195;28;20473;-80
2024/03/25 04:27:46;;;;;;;10.00;6.88;;;;;;;;;;10443012;28;20388;-80
2024/03/25 04:32:48;;;;;;;9.98;6.95;;;;;;;;;;10443792;28;20481;-80
